Adams City, Colorado
Current Conditions -  °F | °C
As of 7:53 PM on Thursday 18 Dec 2014 (Local Time) from KDEN Reporting Station
Broken Clouds Broken Clouds  
Wind Chill: 29°   Ceiling: 20000
Heat Index: 29°   Visibility: 9mi
Dew Point: 25°   Wind: 3mph
Humidity: 85%   Direction: 190°S
Pressure: 30.06"   Gusts: NA
Location:  39.8641°N, 104.821°W
Report Text: KDEN 190253Z 19003KT 9SM SCT080 BKN200 M02/M04 A3006 RMK AO2 SLP201 T10171039 51010
Loading
Personal Weather Stations






























Interactive Weather Map New forecast layout! Learn more

10-Day Weather Forecast

Advertisements
Track Severe Weather on mobile